Time;durP1;ratioP1;P1;durP2;ratioP2;P2;SDS_P1;SDS_P2;PMS_P1;PMS_P2;Temp;Humidity;BMP_temperature;BMP_pressure;BME280_temperature;BME280_humidity;BME280_pressure;Samples;Min_cycle;Max_cycle;Signal;HPM_P1;HPM_P2
2023/12/06 00:00:52;;;;;;;;;;;;;;;-8.58;76.98;100784.81;5004814;28;19929;-73
2023/12/06 00:03:19;;;;;;;;;;;;;;;-8.67;77.13;100775.75;5005748;28;19929;-73
2023/12/06 00:05:44;;;;;;;;;;;;;;;-8.77;77.78;100782.81;5022577;28;20415;-74
2023/12/06 00:08:12;;;;;;;;;;;;;;;-8.83;78.07;100771.69;5021802;28;19929;-73
2023/12/06 00:10:38;;;;;;;;;;;;;;;-8.89;77.99;100774.88;4986972;28;19929;-73
2023/12/06 00:13:04;;;;;;;;;;;;;;;-8.95;78.00;100778.03;5004706;28;20443;-74
2023/12/06 00:15:30;;;;;;;;;;;;;;;-8.98;78.37;100778.25;5022289;28;20041;-74
2023/12/06 00:17:56;;;;;;;;;;;;;;;-8.99;78.46;100785.38;5020328;28;19929;-74
2023/12/06 00:20:22;;;;;;;;;;;;;;;-9.04;78.79;100781.41;5021198;28;19951;-72
2023/12/06 00:22:47;;;;;;;;;;;;;;;-9.07;79.23;100779.81;5021987;28;19956;-73
2023/12/06 00:25:16;;;;;;;;;;;;;;;-9.09;78.91;100776.47;5020830;28;19980;-72
2023/12/06 00:27:41;;;;;;;;;;;;;;;-9.09;79.16;100784.41;5020032;28;20668;-71
2023/12/06 00:30:08;;;;;;;;;;;;;;;-9.07;79.26;100781.66;5007326;28;19990;-72
2023/12/06 00:32:34;;;;;;;;;;;;;;;-9.07;79.14;100787.78;5019949;28;19929;-72
2023/12/06 00:35:00;;;;;;;;;;;;;;;-8.97;79.10;100791.38;5019912;28;20341;-72
2023/12/06 00:37:26;;;;;;;;;;;;;;;-8.92;78.56;100792.81;5023408;28;19963;-72
2023/12/06 00:39:52;;;;;;;;;;;;;;;-8.93;78.78;100794.66;5024078;28;20423;-71
2023/12/06 00:42:19;;;;;;;;;;;;;;;-8.91;78.71;100789.19;5022399;28;19983;-72
2023/12/06 00:44:45;;;;;;;;;;;;;;;-8.89;78.77;100793.44;5024319;28;19983;-71
2023/12/06 00:47:11;;;;;;;;;;;;;;;-8.93;78.77;100796.44;5024309;28;20659;-71
2023/12/06 00:49:37;;;;;;;;;;;;;;;-8.94;79.10;100797.41;5024411;28;20037;-72
2023/12/06 00:52:04;;;;;;;;;;;;;;;-8.95;78.90;100799.22;5023638;28;19929;-72
2023/12/06 00:54:29;;;;;;;;;;;;;;;-8.99;79.34;100805.72;5023962;28;19929;-72
2023/12/06 00:56:55;;;;;;;;;;;;;;;-8.95;79.37;100799.22;5024169;28;19936;-72
2023/12/06 00:59:23;;;;;;;;;;;;;;;-8.92;79.63;100800.78;5024056;28;19929;-74
2023/12/06 01:01:49;;;;;;;;;;;;;;;-8.95;79.37;100796.59;5020817;28;19984;-74
2023/12/06 01:04:14;;;;;;;;;;;;;;;-8.97;79.34;100801.16;5021403;28;20357;-73
2023/12/06 01:06:41;;;;;;;;;;;;;;;-9.00;78.95;100807.53;5022970;28;20352;-74
2023/12/06 01:09:08;;;;;;;;;;;;;;;-9.01;79.39;100805.88;5024086;28;19963;-74
2023/12/06 01:11:34;;;;;;;;;;;;;;;-9.05;79.44;100803.56;5022984;28;19972;-73
2023/12/06 01:13:59;;;;;;;;;;;;;;;-9.10;79.68;100809.22;5018001;28;20466;-74
2023/12/06 01:16:27;;;;;;;;;;;;;;;-9.15;79.71;100811.41;5024905;28;19929;-74
2023/12/06 01:18:53;;;;;;;;;;;;;;;-9.16;80.06;100799.13;5008000;28;19929;-74
2023/12/06 01:21:18;;;;;;;;;;;;;;;-9.15;80.07;100808.75;5022926;28;19929;-74
2023/12/06 01:23:44;;;;;;;;;;;;;;;-9.16;80.36;100794.66;5022734;28;20419;-74
2023/12/06 01:26:10;;;;;;;;;;;;;;;-9.16;80.48;100802.59;5023131;28;19929;-72
2023/12/06 01:28:36;;;;;;;;;;;;;;;-9.17;80.43;100792.97;5022951;28;19929;-72
2023/12/06 01:31:02;;;;;;;;;;;;;;;-9.17;80.44;100790.31;5006284;28;20393;-74
2023/12/06 01:33:29;;;;;;;;;;;;;;;-9.15;80.31;100793.69;4990750;28;19933;-74
2023/12/06 01:35:55;;;;;;;;;;;;;;;-9.13;80.11;100797.09;5025265;28;19929;-74
2023/12/06 01:38:21;;;;;;;;;;;;;;;-9.15;80.13;100795.50;5025458;28;19960;-74
2023/12/06 01:40:47;;;;;;;;;;;;;;;-9.16;80.25;100794.66;5020602;28;19936;-74
2023/12/06 01:43:13;;;;;;;;;;;;;;;-9.17;80.55;100800.09;5024132;28;19937;-73
2023/12/06 01:45:39;;;;;;;;;;;;;;;-9.20;80.39;100798.53;5025937;28;20408;-73
2023/12/06 01:48:05;;;;;;;;;;;;;;;-9.15;80.63;100804.28;5025432;28;19929;-73
2023/12/06 01:50:33;;;;;;;;;;;;;;;-9.10;80.73;100801.28;5004697;28;19933;-74
2023/12/06 01:52:59;;;;;;;;;;;;;;;-9.11;80.62;100802.25;5023024;28;19929;-74
2023/12/06 01:55:25;;;;;;;;;;;;;;;-9.18;80.96;100796.59;5023468;28;19963;-74
2023/12/06 01:57:52;;;;;;;;;;;;;;;-9.24;80.88;100796.22;5023165;28;19964;-74
2023/12/06 02:00:18;;;;;;;;;;;;;;;-9.26;81.50;100796.38;5001881;28;20015;-73
2023/12/06 02:02:44;;;;;;;;;;;;;;;-9.20;81.64;100803.00;5023202;28;19933;-74
2023/12/06 02:05:13;;;;;;;;;;;;;;;-9.16;81.51;100801.78;5038102;28;19980;-74
2023/12/06 02:07:41;;;;;;;;;;;;;;;-9.13;81.49;100796.22;5023512;28;19929;-74
2023/12/06 02:10:07;;;;;;;;;;;;;;;-9.01;81.50;100803.22;5021806;28;20407;-74
2023/12/06 02:12:33;;;;;;;;;;;;;;;-8.89;81.43;100813.81;5004469;28;19929;-74
2023/12/06 02:15:00;;;;;;;;;;;;;;;-8.81;81.07;100808.72;5036154;28;19982;-74
2023/12/06 02:17:28;;;;;;;;;;;;;;;-8.69;81.27;100815.69;5021850;28;19933;-74
2023/12/06 02:19:54;;;;;;;;;;;;;;;-8.63;80.49;100811.69;5021472;28;20359;-74
2023/12/06 02:22:20;;;;;;;;;;;;;;;-8.61;80.41;100811.56;5020900;28;19929;-73
2023/12/06 02:24:48;;;;;;;;;;;;;;;-8.54;80.17;100815.41;5023897;28;19971;-74
2023/12/06 02:27:15;;;;;;;;;;;;;;;-8.50;80.25;100813.34;5017201;28;19936;-74
2023/12/06 02:29:41;;;;;;;;;;;;;;;-8.43;79.99;100815.34;5002739;28;20020;-74
2023/12/06 02:32:07;;;;;;;;;;;;;;;-8.34;79.84;100811.09;5001795;28;19930;-74
2023/12/06 02:34:33;;;;;;;;;;;;;;;-8.26;79.51;100810.47;5016018;28;19936;-74
2023/12/06 02:37:00;;;;;;;;;;;;;;;-8.19;79.34;100818.75;5020206;28;19934;-74
2023/12/06 02:39:28;;;;;;;;;;;;;;;-8.16;79.25;100823.81;5021319;28;19933;-73
2023/12/06 02:41:54;;;;;;;;;;;;;;;-8.07;78.99;100825.69;5021986;28;20393;-73
2023/12/06 02:44:21;;;;;;;;;;;;;;;-8.03;78.91;100831.59;5021736;28;19979;-74
2023/12/06 02:46:47;;;;;;;;;;;;;;;-8.04;78.98;100822.78;5022475;28;19929;-73
2023/12/06 02:49:13;;;;;;;;;;;;;;;-8.04;78.94;100824.59;5021465;28;20399;-73
2023/12/06 02:51:39;;;;;;;;;;;;;;;-8.10;78.56;100836.56;5022196;28;19983;-73
2023/12/06 02:54:05;;;;;;;;;;;;;;;-8.17;78.66;100827.44;5023933;28;19975;-73
2023/12/06 02:56:31;;;;;;;;;;;;;;;-8.18;78.77;100826.59;5022207;28;19932;-73
2023/12/06 02:58:57;;;;;;;;;;;;;;;-8.11;79.00;100832.22;5021949;28;20044;-73
2023/12/06 03:01:26;;;;;;;;;;;;;;;-8.09;78.36;100834.75;5022513;28;19929;-70
2023/12/06 03:03:52;;;;;;;;;;;;;;;-8.06;78.34;100831.84;5022026;28;20063;-71
2023/12/06 03:06:18;;;;;;;;;;;;;;;-8.05;78.18;100830.88;5022176;28;20309;-73
2023/12/06 03:08:44;;;;;;;;;;;;;;;-8.00;78.32;100841.94;5004234;28;20015;-73
2023/12/06 03:11:10;;;;;;;;;;;;;;;-7.94;78.11;100844.09;5021507;28;19929;-73
2023/12/06 03:13:36;;;;;;;;;;;;;;;-7.90;78.01;100839.38;5020482;28;19979;-74
2023/12/06 03:16:02;;;;;;;;;;;;;;;-7.95;78.04;100847.72;5020261;28;19952;-73
2023/12/06 03:18:29;;;;;;;;;;;;;;;-7.93;78.16;100850.25;5022057;28;19929;-73
2023/12/06 03:20:55;;;;;;;;;;;;;;;-7.91;78.08;100849.16;5019114;28;19928;-74
2023/12/06 03:23:21;;;;;;;;;;;;;;;-7.87;77.98;100861.19;5005861;28;20171;-74
2023/12/06 03:25:47;;;;;;;;;;;;;;;-7.81;77.96;100857.19;5019914;28;20015;-74
2023/12/06 03:28:13;;;;;;;;;;;;;;;-7.88;77.65;100862.16;5020140;28;19968;-73
2023/12/06 03:30:39;;;;;;;;;;;;;;;-7.90;78.00;100865.91;5022383;28;19972;-74
2023/12/06 03:33:04;;;;;;;;;;;;;;;-7.96;77.78;100872.59;5023149;28;19964;-74
2023/12/06 03:35:32;;;;;;;;;;;;;;;-8.00;77.53;100868.50;5016600;28;19933;-74
2023/12/06 03:37:58;;;;;;;;;;;;;;;-7.94;77.20;100868.00;5014800;28;20032;-73
2023/12/06 03:40:24;;;;;;;;;;;;;;;-7.94;77.02;100872.47;5003095;28;20037;-73
2023/12/06 03:42:50;;;;;;;;;;;;;;;-7.87;77.01;100874.47;5011919;28;20065;-74
2023/12/06 03:45:16;;;;;;;;;;;;;;;-7.90;77.02;100877.41;5003780;28;19979;-74
2023/12/06 03:47:42;;;;;;;;;;;;;;;-7.92;76.94;100881.13;5021737;28;19929;-73
2023/12/06 03:50:08;;;;;;;;;;;;;;;-8.00;76.89;100879.13;5016735;28;19960;-73
2023/12/06 03:52:35;;;;;;;;;;;;;;;-8.07;77.17;100885.91;5021828;28;19973;-73
2023/12/06 03:55:01;;;;;;;;;;;;;;;-8.12;77.28;100884.50;5022176;28;19968;-73
2023/12/06 03:57:29;;;;;;;;;;;;;;;-8.09;77.35;100891.34;5021738;28;19929;-73
2023/12/06 03:59:54;;;;;;;;;;;;;;;-8.01;77.35;100896.00;5021692;28;19929;-73
2023/12/06 04:02:20;;;;;;;;;;;;;;;-8.00;77.15;100900.34;5020148;28;19933;-71
2023/12/06 04:04:46;;;;;;;;;;;;;;;-7.94;76.94;100896.34;5021941;28;19935;-72
2023/12/06 04:07:12;;;;;;;;;;;;;;;-7.96;77.04;100896.50;5019530;28;19929;-72
2023/12/06 04:09:40;;;;;;;;;;;;;;;-7.86;77.00;100893.94;5020262;28;20028;-72
2023/12/06 04:12:06;;;;;;;;;;;;;;;-7.75;76.71;100899.16;5022701;28;19960;-72
2023/12/06 04:14:31;;;;;;;;;;;;;;;-7.67;76.43;100901.19;5024695;28;20439;-71
2023/12/06 04:16:57;;;;;;;;;;;;;;;-7.58;76.58;100904.88;5024507;28;19968;-72
2023/12/06 04:19:23;;;;;;;;;;;;;;;-7.53;76.29;100905.34;5022223;28;20027;-71
2023/12/06 04:21:50;;;;;;;;;;;;;;;-7.48;75.95;100905.78;5025258;28;20490;-73
2023/12/06 04:24:16;;;;;;;;;;;;;;;-7.48;75.85;100910.28;5023665;28;19929;-73
2023/12/06 04:26:43;;;;;;;;;;;;;;;-7.39;75.99;100914.81;5024748;28;19929;-71
2023/12/06 04:29:09;;;;;;;;;;;;;;;-7.30;75.67;100914.03;5024759;28;20023;-72
2023/12/06 04:31:35;;;;;;;;;;;;;;;-7.23;75.47;100918.81;5012883;28;19936;-71
2023/12/06 04:34:01;;;;;;;;;;;;;;;-7.28;74.89;100925.38;4997701;28;20308;-71
2023/12/06 04:36:27;;;;;;;;;;;;;;;-7.31;74.92;100928.31;5023347;28;19936;-71
2023/12/06 04:38:53;;;;;;;;;;;;;;;-7.34;74.86;100933.84;5025090;28;19928;-71
2023/12/06 04:41:19;;;;;;;;;;;;;;;-7.27;74.66;100932.38;4982555;28;19929;-73
2023/12/06 04:43:46;;;;;;;;;;;;;;;-7.17;74.47;100935.09;5022226;28;20032;-73
2023/12/06 04:46:12;;;;;;;;;;;;;;;-7.17;74.06;100934.25;5021925;28;19937;-73
2023/12/06 04:48:38;;;;;;;;;;;;;;;-7.25;74.34;100942.88;5025080;28;20259;-73
2023/12/06 04:51:04;;;;;;;;;;;;;;;-7.19;74.30;100947.66;5014823;28;19935;-73
2023/12/06 04:53:30;;;;;;;;;;;;;;;-7.27;74.00;100953.63;5007007;28;20455;-73
2023/12/06 04:55:56;;;;;;;;;;;;;;;-7.37;74.45;100954.56;4983548;28;20029;-73
2023/12/06 04:58:22;;;;;;;;;;;;;;;-7.42;74.30;100953.09;5015111;28;20020;-73
2023/12/06 05:00:50;;;;;;;;;;;;;;;-7.33;74.59;100961.28;5047160;28;20036;-73
2023/12/06 05:03:16;;;;;;;;;;;;;;;-7.29;74.03;100960.06;5011564;28;19929;-73
2023/12/06 05:05:42;;;;;;;;;;;;;;;-7.30;74.31;100961.03;5020568;28;19937;-72
2023/12/06 05:08:08;;;;;;;;;;;;;;;-7.23;73.95;100967.53;5020763;28;19929;-73
2023/12/06 05:10:34;;;;;;;;;;;;;;;-7.21;73.81;100967.38;5015455;28;20036;-73
2023/12/06 05:13:00;;;;;;;;;;;;;;;-7.24;73.85;100960.53;5006577;28;20223;-73
2023/12/06 05:15:26;;;;;;;;;;;;;;;-7.24;73.77;100963.19;5014840;28;19967;-73
2023/12/06 05:17:53;;;;;;;;;;;;;;;-7.16;73.75;100958.03;5013632;28;19936;-73
2023/12/06 05:20:20;;;;;;;;;;;;;;;-7.19;73.53;100965.44;5014765;28;19983;-73
2023/12/06 05:22:45;;;;;;;;;;;;;;;-7.26;73.22;100967.75;5016869;28;20018;-73
2023/12/06 05:25:11;;;;;;;;;;;;;;;-7.32;73.33;100974.47;5014846;28;20021;-75
2023/12/06 05:27:37;;;;;;;;;;;;;;;-7.33;73.46;100974.56;5007129;28;19929;-74
2023/12/06 05:30:04;;;;;;;;;;;;;;;-7.38;73.46;100974.97;4984385;28;20277;-76
2023/12/06 05:32:30;;;;;;;;;;;;;;;-7.39;73.80;100983.91;4998489;28;19933;-75
2023/12/06 05:34:57;;;;;;;;;;;;;;;-7.36;73.61;100983.63;5015717;28;19929;-74
2023/12/06 05:37:23;;;;;;;;;;;;;;;-7.41;73.66;100980.53;5020456;28;19928;-75
2023/12/06 05:39:49;;;;;;;;;;;;;;;-7.36;74.00;100985.47;5000013;28;19934;-75
2023/12/06 05:42:16;;;;;;;;;;;;;;;-7.36;73.80;100988.97;5019290;28;19929;-75
2023/12/06 05:44:42;;;;;;;;;;;;;;;-7.39;73.60;100985.72;5010097;28;20199;-74
2023/12/06 05:47:08;;;;;;;;;;;;;;;-7.49;73.67;100985.63;5014644;28;20027;-76
2023/12/06 05:49:34;;;;;;;;;;;;;;;-7.52;74.06;100989.41;4996756;28;19956;-75
2023/12/06 05:52:02;;;;;;;;;;;;;;;-7.52;74.08;100988.53;4998802;28;20424;-76
2023/12/06 05:54:28;;;;;;;;;;;;;;;-7.52;74.03;100992.06;4990004;28;19929;-76
2023/12/06 05:56:54;;;;;;;;;;;;;;;-7.46;74.39;100994.19;5020556;28;19937;-76
2023/12/06 05:59:21;;;;;;;;;;;;;;;-7.37;74.10;100999.72;5022431;28;19983;-76
2023/12/06 06:01:48;;;;;;;;;;;;;;;-7.38;74.09;101000.72;5010695;28;19929;-73
2023/12/06 06:04:15;;;;;;;;;;;;;;;-7.38;74.01;101004.19;5023911;28;19929;-73
2023/12/06 06:06:42;;;;;;;;;;;;;;;-7.40;74.00;101006.13;5016831;28;20411;-76
2023/12/06 06:09:11;;;;;;;;;;;;;;;-7.43;73.92;101006.41;5010757;28;19929;-76
2023/12/06 06:11:37;;;;;;;;;;;;;;;-7.48;73.59;101008.59;5000345;28;19933;-76
2023/12/06 06:14:03;;;;;;;;;;;;;;;-7.54;73.96;100999.31;5005015;28;19929;-76
2023/12/06 06:16:29;;;;;;;;;;;;;;;-7.44;73.97;101010.03;5012802;28;20308;-76
2023/12/06 06:18:55;;;;;;;;;;;;;;;-7.44;74.04;101008.19;5013095;28;20405;-76
2023/12/06 06:21:21;;;;;;;;;;;;;;;-7.42;73.88;101010.75;5012129;28;19960;-76
2023/12/06 06:23:47;;;;;;;;;;;;;;;-7.38;74.14;101017.47;5028796;28;19979;-76
2023/12/06 06:26:15;;;;;;;;;;;;;;;-7.28;73.85;101015.75;5012176;28;19976;-76
2023/12/06 06:28:41;;;;;;;;;;;;;;;-7.22;73.34;101013.53;5013920;28;19935;-76
2023/12/06 06:31:08;;;;;;;;;;;;;;;-7.21;73.16;101017.88;5014552;28;20288;-76
2023/12/06 06:33:39;;;;;;;;;;;;;;;-7.28;73.24;101021.06;4997488;28;20590;-78
2023/12/06 06:36:05;;;;;;;;;;;;;;;-7.34;73.24;101026.88;5018975;28;19933;-73
2023/12/06 06:38:31;;;;;;;;;;;;;;;-7.37;73.54;101026.31;5021269;28;20409;-76
2023/12/06 06:40:58;;;;;;;;;;;;;;;-7.37;73.70;101032.47;5012331;28;19936;-76
2023/12/06 06:43:26;;;;;;;;;;;;;;;-7.22;73.71;101026.84;5012434;28;19984;-76
2023/12/06 06:45:52;;;;;;;;;;;;;;;-7.27;73.24;101030.72;5010071;28;20016;-76
2023/12/06 06:48:18;;;;;;;;;;;;;;;-7.20;73.65;101030.22;5001751;28;20025;-76
2023/12/06 06:50:43;;;;;;;;;;;;;;;-7.14;73.49;101040.34;5002491;28;20297;-73
2023/12/06 06:53:09;;;;;;;;;;;;;;;-7.14;73.54;101043.00;5002118;28;19936;-72
2023/12/06 06:55:35;;;;;;;;;;;;;;;-7.16;73.58;101048.44;5022321;28;20389;-73
2023/12/06 06:58:03;;;;;;;;;;;;;;;-7.20;73.41;101044.34;5016176;28;20019;-73
2023/12/06 07:00:30;;;;;;;;;;;;;;;-7.16;73.67;101045.78;5021650;28;20404;-72
2023/12/06 07:02:56;;;;;;;;;;;;;;;-7.16;73.28;101044.94;5025138;28;19936;-73
2023/12/06 07:05:22;;;;;;;;;;;;;;;-7.18;73.30;101041.56;5022458;28;19929;-73
2023/12/06 07:07:48;;;;;;;;;;;;;;;-7.16;73.32;101043.13;5020026;28;20106;-72
2023/12/06 07:10:14;;;;;;;;;;;;;;;-7.14;73.33;101046.50;5014885;28;19936;-73
2023/12/06 07:12:40;;;;;;;;;;;;;;;-7.17;73.34;101046.75;5014519;28;19991;-73
2023/12/06 07:15:13;;;;;;;;;;;;;;;-7.24;73.49;101050.06;5003021;28;19975;-73
2023/12/06 07:17:40;;;;;;;;;;;;;;;-7.27;73.94;101048.47;5008476;28;20439;-73
2023/12/06 07:20:07;;;;;;;;;;;;;;;-7.27;74.21;101046.69;5021690;28;19933;-72
2023/12/06 07:22:33;;;;;;;;;;;;;;;-7.29;74.29;101045.97;5025451;28;19932;-73
2023/12/06 07:24:59;;;;;;;;;;;;;;;-7.34;74.49;101048.13;5025717;28;19929;-72
2023/12/06 07:27:25;;;;;;;;;;;;;;;-7.40;74.96;101056.63;5022667;28;19929;-73
2023/12/06 07:29:51;;;;;;;;;;;;;;;-7.40;75.12;101059.28;5004471;28;19932;-73
2023/12/06 07:32:17;;;;;;;;;;;;;;;-7.41;74.99;101057.59;5023357;28;19936;-73
2023/12/06 07:34:45;;;;;;;;;;;;;;;-7.43;75.18;101062.22;5024469;28;20256;-73
2023/12/06 07:37:10;;;;;;;;;;;;;;;-7.45;75.07;101059.66;5021463;28;19933;-73
2023/12/06 07:39:37;;;;;;;;;;;;;;;-7.47;75.14;101069.59;5020113;28;19983;-73
2023/12/06 07:42:03;;;;;;;;;;;;;;;-7.48;75.38;101072.38;5022896;28;20371;-73
2023/12/06 07:44:29;;;;;;;;;;;;;;;-7.43;75.55;101063.03;5018509;28;19929;-72
2023/12/06 07:46:55;;;;;;;;;;;;;;;-7.37;75.08;101067.00;4985092;28;19933;-72
2023/12/06 07:49:20;;;;;;;;;;;;;;;-7.38;75.15;101075.94;4983680;28;19940;-72
2023/12/06 07:51:48;;;;;;;;;;;;;;;-7.29;75.00;101075.22;5002726;28;19935;-72
2023/12/06 07:54:15;;;;;;;;;;;;;;;-7.19;74.77;101080.59;5003624;28;19937;-73
2023/12/06 07:56:41;;;;;;;;;;;;;;;-6.99;74.68;101092.25;5009225;28;19940;-72
2023/12/06 07:59:07;;;;;;;;;;;;;;;-6.96;74.09;101082.31;5014249;28;19975;-73
2023/12/06 08:01:33;;;;;;;;;;;;;;;-7.02;73.95;101089.84;5012739;28;19933;-73
2023/12/06 08:03:58;;;;;;;;;;;;;;;-7.14;74.07;101091.69;5021375;28;20384;-72
2023/12/06 08:06:26;;;;;;;;;;;;;;;-7.23;74.37;101088.94;5004163;28;20027;-73
2023/12/06 08:08:53;;;;;;;;;;;;;;;-7.28;74.43;101089.31;5022454;28;20235;-72
2023/12/06 08:11:19;;;;;;;;;;;;;;;-7.32;74.27;101088.75;5006754;28;19929;-73
2023/12/06 08:13:46;;;;;;;;;;;;;;;-7.36;74.38;101089.97;5020569;28;19990;-73
2023/12/06 08:16:12;;;;;;;;;;;;;;;-7.34;74.49;101090.66;5003265;28;19929;-73
2023/12/06 08:18:37;;;;;;;;;;;;;;;-7.22;74.54;101090.63;5037321;28;20327;-73
2023/12/06 08:21:07;;;;;;;;;;;;;;;-7.01;74.45;101094.19;5021956;28;19929;-73
2023/12/06 08:23:33;;;;;;;;;;;;;;;-6.97;73.88;101094.75;5024035;28;19929;-74
2023/12/06 08:26:01;;;;;;;;;;;;;;;-6.81;73.95;101096.13;5021939;28;20260;-73
2023/12/06 08:28:27;;;;;;;;;;;;;;;-6.78;73.36;101098.56;5004391;28;20305;-72
2023/12/06 08:30:54;;;;;;;;;;;;;;;-6.86;73.38;101097.38;5022201;28;19952;-73
2023/12/06 08:33:22;;;;;;;;;;;;;;;-6.92;73.36;101089.91;5006305;28;19967;-73
2023/12/06 08:35:49;;;;;;;;;;;;;;;-7.00;73.47;101100.34;5024724;28;20304;-73
2023/12/06 08:38:15;;;;;;;;;;;;;;;-7.03;73.38;101096.13;5014733;28;19929;-76
2023/12/06 08:40:41;;;;;;;;;;;;;;;-7.04;73.79;101098.91;5032106;28;19936;-76
2023/12/06 08:43:09;;;;;;;;;;;;;;;-7.05;73.63;101102.56;5045581;28;20328;-76
2023/12/06 08:45:35;;;;;;;;;;;;;;;-7.03;73.73;101105.91;5030523;28;19955;-76
2023/12/06 08:48:01;;;;;;;;;;;;;;;-7.01;73.47;101098.66;5032659;28;19929;-76
2023/12/06 08:50:27;;;;;;;;;;;;;;;-6.99;73.56;101097.56;5014459;28;19935;-76
2023/12/06 08:52:53;;;;;;;;;;;;;;;-6.93;73.42;101106.00;5021294;28;19999;-76
2023/12/06 08:55:19;;;;;;;;;;;;;;;-6.90;73.28;101109.25;5019797;28;19941;-76
2023/12/06 08:57:45;;;;;;;;;;;;;;;-6.78;73.33;101101.22;5004269;28;19936;-76
2023/12/06 09:00:13;;;;;;;;;;;;;;;-6.75;72.98;101100.97;5025611;28;19933;-76
2023/12/06 09:02:39;;;;;;;;;;;;;;;-6.74;72.82;101095.50;5024939;28;20035;-76
2023/12/06 09:05:06;;;;;;;;;;;;;;;-6.69;72.41;101092.44;5026219;28;19929;-76
2023/12/06 09:07:31;;;;;;;;;;;;;;;-6.72;72.51;101095.38;5025756;28;19987;-76
2023/12/06 09:09:57;;;;;;;;;;;;;;;-6.70;72.42;101085.44;5024024;28;19929;-76
2023/12/06 09:12:23;;;;;;;;;;;;;;;-6.66;72.53;101088.69;5024354;28;20304;-77
2023/12/06 09:14:50;;;;;;;;;;;;;;;-6.51;72.39;101089.19;5024590;28;20293;-76
2023/12/06 09:17:17;;;;;;;;;;;;;;;-6.50;71.94;101091.72;5023812;28;19929;-76
2023/12/06 09:19:43;;;;;;;;;;;;;;;-6.53;71.87;101099.13;5026553;28;20142;-76
2023/12/06 09:22:09;;;;;;;;;;;;;;;-6.66;71.87;101099.34;5027313;28;20387;-76
2023/12/06 09:24:35;;;;;;;;;;;;;;;-6.68;72.10;101093.31;5023461;28;19940;-77
2023/12/06 09:27:02;;;;;;;;;;;;;;;-6.65;72.18;101098.38;5025195;28;19968;-76
2023/12/06 09:29:27;;;;;;;;;;;;;;;-6.44;72.04;101104.50;5025874;28;19929;-76
2023/12/06 09:31:53;;;;;;;;;;;;;;;-6.47;71.48;101106.59;5026573;28;19936;-75
2023/12/06 09:34:21;;;;;;;;;;;;;;;-6.60;71.15;101110.31;5025192;28;19929;-75
2023/12/06 09:36:46;;;;;;;;;;;;;;;-6.62;71.59;101101.63;5025550;28;19959;-76
2023/12/06 09:39:15;;;;;;;;;;;;;;;-6.64;71.55;101097.38;5023763;28;19960;-76
2023/12/06 09:41:42;;;;;;;;;;;;;;;-6.59;71.53;101095.16;5026173;28;20423;-75
2023/12/06 09:44:08;;;;;;;;;;;;;;;-6.59;71.35;101098.69;5024881;28;19929;-76
2023/12/06 09:46:34;;;;;;;;;;;;;;;-6.56;71.11;101094.91;5024996;28;19929;-76
2023/12/06 09:49:01;;;;;;;;;;;;;;;-6.56;71.23;101093.09;5006357;28;19975;-73
2023/12/06 09:51:28;;;;;;;;;;;;;;;-6.53;71.13;101097.31;5020834;28;19933;-72
2023/12/06 09:53:54;;;;;;;;;;;;;;;-6.44;71.13;101101.00;5023098;28;19933;-73
2023/12/06 09:56:21;;;;;;;;;;;;;;;-6.45;70.88;101096.66;5025011;28;20382;-73
2023/12/06 09:58:47;;;;;;;;;;;;;;;-6.56;70.44;101092.25;5024283;28;20656;-72
2023/12/06 10:01:13;;;;;;;;;;;;;;;-6.62;70.78;101104.28;5026060;28;19979;-73
2023/12/06 10:03:38;;;;;;;;;;;;;;;-6.67;70.93;101097.66;5026814;28;20031;-73
2023/12/06 10:06:05;;;;;;;;;;;;;;;-6.68;71.12;101094.13;5028342;28;20300;-73
2023/12/06 10:08:36;;;;;;;;;;;;;;;-6.66;71.09;101099.34;5025514;28;20367;-72
2023/12/06 10:11:04;;;;;;;;;;;;;;;-6.65;71.19;101104.50;4991665;28;20024;-72
2023/12/06 10:13:30;;;;;;;;;;;;;;;-6.66;70.98;101108.16;5019563;28;19960;-72
2023/12/06 10:15:56;;;;;;;;;;;;;;;-6.63;71.15;101109.72;5023057;28;19929;-73
2023/12/06 10:18:22;;;;;;;;;;;;;;;-6.61;70.76;101115.75;5024697;28;20410;-73
2023/12/06 10:20:48;;;;;;;;;;;;;;;-6.58;70.78;101108.34;5023320;28;19936;-73
2023/12/06 10:23:14;;;;;;;;;;;;;;;-6.55;70.65;101107.25;5016619;28;19930;-72
2023/12/06 10:25:43;;;;;;;;;;;;;;;-6.59;70.33;101117.31;5008397;28;20023;-73
2023/12/06 10:28:12;;;;;;;;;;;;;;;-6.66;70.47;101109.97;5019650;28;22966;-73
2023/12/06 10:30:37;;;;;;;;;;;;;;;-6.68;70.46;101115.41;5022737;28;20409;-73
2023/12/06 10:33:04;;;;;;;;;;;;;;;-6.65;70.74;101122.31;5024014;28;19929;-72
2023/12/06 10:35:31;;;;;;;;;;;;;;;-6.60;70.44;101115.63;5022418;28;20134;-73
2023/12/06 10:37:58;;;;;;;;;;;;;;;-6.67;70.18;101116.28;4989377;28;20327;-72
2023/12/06 10:40:26;;;;;;;;;;;;;;;-6.52;70.32;101132.75;5020466;28;20047;-73
2023/12/06 10:42:57;;;;;;;;;;;;;;;-6.50;70.22;101130.81;5019964;28;19939;-73
2023/12/06 10:45:22;;;;;;;;;;;;;;;-6.46;70.30;101133.06;4977057;28;19937;-73
2023/12/06 10:47:49;;;;;;;;;;;;;;;-6.38;70.14;101127.09;5015365;28;20307;-73
2023/12/06 10:50:16;;;;;;;;;;;;;;;-6.32;69.65;101126.59;5018740;28;19929;-72
2023/12/06 10:52:43;;;;;;;;;;;;;;;-6.48;68.95;101129.69;5023716;28;20470;-73
2023/12/06 10:55:10;;;;;;;;;;;;;;;-6.50;69.08;101136.97;5018405;28;19983;-72
2023/12/06 10:57:37;;;;;;;;;;;;;;;-6.48;68.75;101131.50;5023313;28;19929;-72
2023/12/06 11:00:06;;;;;;;;;;;;;;;-6.47;68.93;101130.56;5021040;28;20072;-76
2023/12/06 11:02:33;;;;;;;;;;;;;;;-6.34;68.75;101122.38;5025243;28;19983;-76
2023/12/06 11:05:05;;;;;;;;;;;;;;;-6.27;68.52;101132.34;5020337;28;19933;-73
2023/12/06 11:07:40;;;;;;;;;;;;;;;-6.48;68.43;101131.50;5014006;28;19934;-73
2023/12/06 11:10:10;;;;;;;;;;;;;;;-6.63;68.86;101131.00;5017676;28;20015;-73
2023/12/06 11:12:43;;;;;;;;;;;;;;;-6.68;69.12;101139.38;5013384;28;20458;-73
2023/12/06 11:15:18;;;;;;;;;;;;;;;-6.62;69.13;101138.00;5023330;28;20048;-73
2023/12/06 11:17:46;;;;;;;;;;;;;;;-6.67;69.44;101135.72;4986081;28;19929;-74
2023/12/06 11:20:13;;;;;;;;;;;;;;;-6.66;69.54;101136.59;5021342;28;20355;-76
2023/12/06 11:22:40;;;;;;;;;;;;;;;-6.59;69.63;101143.06;5021616;28;20211;-74
2023/12/06 11:25:07;;;;;;;;;;;;;;;-6.48;69.19;101139.50;5015898;28;19936;-73
2023/12/06 11:27:33;;;;;;;;;;;;;;;-6.52;69.22;101140.72;5023821;28;19929;-76
2023/12/06 11:30:00;;;;;;;;;;;;;;;-6.58;69.18;101131.44;5020188;28;19933;-77
2023/12/06 11:32:42;;;;;;;;;;;;;;;-6.53;69.39;101142.56;5018727;28;20252;-73
2023/12/06 11:35:09;;;;;;;;;;;;;;;-6.42;69.17;101136.31;5021781;28;19960;-73
2023/12/06 11:37:35;;;;;;;;;;;;;;;-6.36;68.90;101142.97;5018171;28;20315;-73
2023/12/06 11:40:22;;;;;;;;;;;;;;;-6.26;68.43;101146.50;5021013;28;19933;-73
2023/12/06 11:42:52;;;;;;;;;;;;;;;-6.34;68.47;101146.31;4983538;28;19936;-73
2023/12/06 11:45:28;;;;;;;;;;;;;;;-6.36;68.36;101146.44;5023495;28;20317;-73
2023/12/06 11:47:54;;;;;;;;;;;;;;;-6.49;68.67;101143.13;5019147;28;20316;-73
2023/12/06 11:50:23;;;;;;;;;;;;;;;-6.59;68.58;101140.41;5021189;28;19929;-73
2023/12/06 11:52:50;;;;;;;;;;;;;;;-6.50;68.72;101144.09;5022444;28;20015;-73
2023/12/06 11:55:17;;;;;;;;;;;;;;;-6.51;68.52;101145.09;5018238;28;20389;-73
2023/12/06 11:58:00;;;;;;;;;;;;;;;-6.53;68.55;101139.06;5017994;28;20462;-72
2023/12/06 12:00:27;;;;;;;;;;;;;;;-6.60;68.61;101139.59;5011241;28;19956;-73
2023/12/06 12:02:53;;;;;;;;;;;;;;;-6.53;69.19;101137.25;5017578;28;19936;-72
2023/12/06 12:05:20;;;;;;;;;;;;;;;-6.18;68.71;101141.38;5019749;28;20359;-76
2023/12/06 12:07:48;;;;;;;;;;;;;;;-6.07;67.75;101145.75;5017706;28;20335;-73
2023/12/06 12:10:14;;;;;;;;;;;;;;;-6.01;67.81;101149.72;5019504;28;20392;-73
2023/12/06 12:12:40;;;;;;;;;;;;;;;-5.60;67.41;101139.03;5018573;28;19929;-76
2023/12/06 12:15:06;;;;;;;;;;;;;;;-5.23;66.73;101129.59;5021276;28;19929;-76
2023/12/06 12:17:32;;;;;;;;;;;;;;;-5.07;65.65;101143.22;5014527;28;20399;-76
2023/12/06 12:19:59;;;;;;;;;;;;;;;-5.45;65.40;101153.69;5015580;28;19933;-77
2023/12/06 12:22:25;;;;;;;;;;;;;;;-5.94;66.47;101150.84;5019221;28;20036;-73
2023/12/06 12:24:52;;;;;;;;;;;;;;;-6.19;67.54;101146.81;5019459;28;20024;-72
2023/12/06 12:27:20;;;;;;;;;;;;;;;-6.32;68.25;101155.88;5002992;28;20373;-76
2023/12/06 12:29:54;;;;;;;;;;;;;;;-6.37;68.31;101157.25;4982089;28;19932;-76
2023/12/06 12:32:20;;;;;;;;;;;;;;;-6.53;68.72;101158.53;5020343;28;19936;-76